Time;durP1;ratioP1;P1;durP2;ratioP2;P2;SDS_P1;SDS_P2;PMS_P1;PMS_P2;Temp;Humidity;BMP_temperature;BMP_pressure;BME280_temperature;BME280_humidity;BME280_pressure;Samples;Min_cycle;Max_cycle;Signal;HPM_P1;HPM_P2
2022/12/02 00:02:28;;;;;;;38.58;17.20;;;5.70;94.80;;;;;;6163423;23;20028;-83
2022/12/02 00:05:34;;;;;;;32.40;14.37;;;5.70;94.80;;;;;;6189310;23;20013;-87
2022/12/02 00:08:18;;;;;;;31.30;14.18;;;5.70;94.70;;;;;;6145009;23;20020;-94
2022/12/02 00:10:54;;;;;;;28.67;13.90;;;5.60;94.70;;;;;;6167333;23;20017;-87
2022/12/02 00:13:33;;;;;;;29.88;13.85;;;5.60;94.80;;;;;;6164588;23;20063;-86
2022/12/02 00:16:13;;;;;;;30.25;13.35;;;5.60;94.70;;;;;;6189192;23;20021;-87
2022/12/02 00:18:41;;;;;;;33.00;14.90;;;5.70;94.70;;;;;;6164334;23;20051;-87
2022/12/02 00:21:10;;;;;;;29.15;13.45;;;5.60;94.70;;;;;;6164611;23;20469;-86
2022/12/02 00:23:41;;;;;;;24.13;11.25;;;5.60;94.70;;;;;;6165022;23;20020;-87
2022/12/02 00:26:08;;;;;;;27.55;11.48;;;5.60;94.70;;;;;;6190594;23;20028;-93
2022/12/02 00:28:39;;;;;;;26.75;11.63;;;5.60;94.60;;;;;;6193867;23;20031;-94
2022/12/02 00:31:09;;;;;;;25.05;11.75;;;5.60;94.60;;;;;;6146399;23;20024;-94
2022/12/02 00:33:40;;;;;;;27.60;11.50;;;5.60;94.60;;;;;;6169180;23;20021;-94
2022/12/02 00:36:08;;;;;;;28.45;12.68;;;5.60;94.60;;;;;;6169545;23;20013;-93
2022/12/02 00:38:38;;;;;;;24.55;11.88;;;5.60;94.60;;;;;;6193884;23;20028;-94
2022/12/02 00:41:07;;;;;;;27.17;11.90;;;5.60;94.60;;;;;;6170697;23;20024;-93
2022/12/02 00:46:31;;;;;;;26.20;12.43;;;5.60;94.50;;;;;;6194628;23;20082;-93
2022/12/02 00:49:09;;;;;;;24.95;11.93;;;5.60;94.50;;;;;;6170135;23;20020;-94
2022/12/02 00:51:45;;;;;;;23.10;12.25;;;5.50;94.50;;;;;;6170512;23;20048;-94
2022/12/02 00:54:15;;;;;;;26.88;12.18;;;5.50;94.50;;;;;;6170539;23;20088;-94
2022/12/02 00:56:44;;;;;;;21.40;9.98;;;5.50;94.50;;;;;;6194665;23;20022;-92
2022/12/02 00:59:15;;;;;;;25.83;12.10;;;5.50;94.50;;;;;;6194597;23;20494;-93
2022/12/02 01:01:48;;;;;;;22.90;10.52;;;5.50;94.50;;;;;;6170099;23;20020;-93
2022/12/02 01:04:18;;;;;;;22.98;9.43;;;5.60;94.50;;;;;;6194029;23;20047;-93
2022/12/02 01:06:52;;;;;;;27.17;11.27;;;5.50;94.50;;;;;;6193909;23;20027;-93
2022/12/02 01:09:20;;;;;;;25.02;10.93;;;5.50;94.40;;;;;;6155168;23;20400;-93
2022/12/02 01:11:50;;;;;;;23.50;10.82;;;5.50;94.40;;;;;;6243164;23;20044;-87
2022/12/02 01:14:20;;;;;;;24.50;11.05;;;5.50;94.40;;;;;;6215008;23;20028;-87
2022/12/02 01:16:49;;;;;;;22.15;10.77;;;5.50;94.40;;;;;;6215693;23;20016;-87
2022/12/02 01:19:24;;;;;;;23.33;11.40;;;5.40;94.40;;;;;;6241615;23;20024;-87
2022/12/02 01:21:59;;;;;;;27.58;11.90;;;5.40;94.40;;;;;;6215215;23;20024;-86
2022/12/02 01:24:26;;;;;;;26.20;11.30;;;5.40;94.40;;;;;;6215627;23;20067;-87
2022/12/02 01:26:57;;;;;;;23.20;11.20;;;5.40;94.40;;;;;;6191009;23;20099;-87
2022/12/02 01:29:25;;;;;;;23.27;10.52;;;5.40;94.40;;;;;;6216056;23;20075;-86
2022/12/02 01:31:58;;;;;;;21.45;10.35;;;5.50;94.40;;;;;;6190569;23;20024;-87
2022/12/02 01:34:25;;;;;;;27.48;10.55;;;5.40;94.40;;;;;;6166368;23;20029;-86
2022/12/02 01:36:53;;;;;;;24.30;10.35;;;5.50;94.40;;;;;;6190353;23;20016;-86
2022/12/02 01:39:23;;;;;;;23.65;9.95;;;5.40;94.40;;;;;;6215423;23;20031;-87
2022/12/02 01:41:54;;;;;;;19.88;10.40;;;5.40;94.40;;;;;;6190859;23;20043;-87
2022/12/02 01:44:21;;;;;;;23.65;10.52;;;5.40;94.40;;;;;;6215404;23;20020;-87
2022/12/02 01:46:49;;;;;;;25.50;11.70;;;5.40;94.40;;;;;;6190564;23;20048;-87
2022/12/02 01:49:16;;;;;;;22.42;10.10;;;5.40;94.40;;;;;;6215224;23;20155;-87
2022/12/02 01:51:44;;;;;;;24.45;10.98;;;5.40;94.40;;;;;;6215971;23;20040;-87
2022/12/02 01:54:12;;;;;;;23.42;10.38;;;5.40;94.40;;;;;;6215089;23;20024;-87
2022/12/02 01:56:40;;;;;;;20.23;10.50;;;5.40;94.40;;;;;;6240887;23;20020;-86
2022/12/02 01:59:17;;;;;;;23.70;11.80;;;5.40;94.30;;;;;;6190507;23;20026;-87
2022/12/02 02:01:46;;;;;;;23.02;11.02;;;5.40;94.30;;;;;;6214377;23;20032;-87
2022/12/02 02:04:14;;;;;;;24.27;10.07;;;5.40;94.30;;;;;;6190406;23;20023;-87
2022/12/02 02:06:46;;;;;;;26.15;12.10;;;5.40;94.30;;;;;;6214892;23;20024;-87
2022/12/02 02:09:14;;;;;;;26.98;13.43;;;5.30;94.30;;;;;;6180117;23;20028;-87
2022/12/02 02:11:42;;;;;;;27.15;13.40;;;5.30;94.30;;;;;;6195517;23;20051;-87
2022/12/02 02:14:12;;;;;;;28.95;14.70;;;5.30;94.30;;;;;;6195905;23;20023;-87
2022/12/02 02:16:41;;;;;;;28.38;12.43;;;5.20;94.20;;;;;;6220689;23;20058;-87
2022/12/02 02:19:12;;;;;;;30.90;13.52;;;5.20;94.30;;;;;;6195746;23;20036;-87
2022/12/02 02:21:48;;;;;;;27.50;11.57;;;5.20;94.20;;;;;;6196068;23;20103;-87
2022/12/02 02:24:18;;;;;;;32.03;13.98;;;5.20;94.30;;;;;;6220339;23;20016;-87
2022/12/02 02:26:45;;;;;;;26.60;11.35;;;5.10;94.20;;;;;;6195253;23;20353;-87
2022/12/02 02:29:13;;;;;;;28.40;13.18;;;5.10;94.20;;;;;;6195535;23;20024;-87
2022/12/02 02:31:44;;;;;;;27.70;12.95;;;5.10;94.20;;;;;;6195480;23;20457;-87
2022/12/02 02:34:14;;;;;;;26.38;13.70;;;5.10;94.20;;;;;;6195807;23;20473;-87
2022/12/02 02:36:44;;;;;;;30.55;14.02;;;5.10;94.20;;;;;;6220694;23;20012;-87
2022/12/02 02:39:12;;;;;;;32.17;12.85;;;5.10;94.20;;;;;;6220346;23;20020;-87
2022/12/02 02:41:40;;;;;;;28.73;12.60;;;5.00;94.20;;;;;;6195385;23;20012;-87
2022/12/02 02:44:08;;;;;;;28.55;12.18;;;5.00;94.20;;;;;;6197862;23;20055;-92
2022/12/02 02:46:35;;;;;;;27.33;11.18;;;5.00;94.20;;;;;;6198121;23;20350;-93
2022/12/02 02:49:03;;;;;;;24.38;10.35;;;5.00;94.20;;;;;;6223562;23;20447;-93
2022/12/02 02:51:31;;;;;;;24.83;10.63;;;5.00;94.20;;;;;;6197624;23;20024;-93
2022/12/02 02:53:58;;;;;;;21.98;10.20;;;5.00;94.20;;;;;;6197688;23;20043;-93
2022/12/02 02:56:29;;;;;;;21.33;9.63;;;5.00;94.20;;;;;;6222826;23;20080;-92
2022/12/02 02:58:57;;;;;;;18.35;7.88;;;5.00;94.20;;;;;;6247588;22;20103;-94
2022/12/02 03:01:29;;;;;;;20.25;8.43;;;5.10;94.20;;;;;;6247883;22;20016;-92
2022/12/02 03:04:03;;;;;;;22.55;9.32;;;5.10;94.50;;;;;;6221925;23;20016;-93
2022/12/02 03:06:35;;;;;;;28.17;12.45;;;5.10;94.20;;;;;;6221963;23;20315;-93
2022/12/02 03:09:04;;;;;;;23.17;8.90;;;5.00;94.10;;;;;;6221497;23;20024;-93
2022/12/02 03:11:36;;;;;;;21.63;9.15;;;5.00;94.10;;;;;;6221845;23;20322;-93
2022/12/02 03:14:05;;;;;;;19.00;7.90;;;5.00;94.10;;;;;;6196864;23;20043;-93
2022/12/02 03:16:33;;;;;;;22.30;8.60;;;5.00;94.20;;;;;;6196549;23;20107;-92
2022/12/02 03:19:03;;;;;;;23.00;9.73;;;5.00;94.20;;;;;;6221402;23;20020;-93
2022/12/02 03:21:34;;;;;;;25.45;10.85;;;5.00;94.30;;;;;;6196761;23;20039;-93
2022/12/02 03:24:03;;;;;;;25.33;10.40;;;4.90;94.10;;;;;;6221919;23;20012;-93
2022/12/02 03:26:35;;;;;;;22.45;9.07;;;4.90;94.10;;;;;;6247096;22;20020;-94
2022/12/02 03:29:10;;;;;;;21.52;8.43;;;4.90;94.10;;;;;;6197979;23;20324;-93
2022/12/02 03:31:37;;;;;;;22.50;8.57;;;4.90;94.10;;;;;;6196497;23;20012;-93
2022/12/02 03:34:08;;;;;;;23.63;10.32;;;4.90;94.30;;;;;;6196106;23;20103;-94
2022/12/02 03:36:38;;;;;;;19.77;8.48;;;4.90;94.10;;;;;;6196460;23;20431;-94
2022/12/02 03:39:09;;;;;;;18.83;8.77;;;4.90;94.00;;;;;;6221364;23;20012;-93
2022/12/02 03:41:37;;;;;;;17.35;7.50;;;4.90;94.00;;;;;;6221534;23;20044;-93
2022/12/02 03:44:05;;;;;;;19.75;8.25;;;4.90;94.00;;;;;;6220869;23;20403;-93
2022/12/02 03:46:33;;;;;;;22.55;8.43;;;4.90;94.00;;;;;;6221603;23;20020;-93
2022/12/02 03:49:03;;;;;;;21.52;9.05;;;4.90;94.00;;;;;;6221337;23;20020;-92
2022/12/02 03:51:31;;;;;;;18.88;8.27;;;4.90;94.00;;;;;;6220826;23;20016;-92
2022/12/02 03:54:00;;;;;;;20.98;9.60;;;4.90;94.00;;;;;;6220470;23;20047;-93
2022/12/02 03:56:36;;;;;;;16.90;8.15;;;4.90;94.00;;;;;;6220541;23;20020;-92
2022/12/02 03:59:06;;;;;;;21.45;9.40;;;4.90;94.00;;;;;;6196038;23;20028;-92
2022/12/02 04:01:36;;;;;;;18.92;8.02;;;4.90;94.00;;;;;;6220388;23;20024;-93
2022/12/02 04:04:04;;;;;;;22.27;9.10;;;4.90;94.00;;;;;;6170983;23;20016;-93
2022/12/02 04:06:34;;;;;;;23.48;9.75;;;4.90;93.90;;;;;;6221438;23;20020;-93
2022/12/02 04:09:02;;;;;;;22.45;8.38;;;4.90;94.00;;;;;;6195860;23;20024;-94
2022/12/02 04:11:32;;;;;;;19.67;8.68;;;4.90;94.00;;;;;;6196275;23;20390;-94
2022/12/02 04:14:09;;;;;;;20.77;8.95;;;4.90;94.00;;;;;;6223214;23;20016;-94
2022/12/02 04:16:37;;;;;;;18.02;8.10;;;4.90;94.00;;;;;;6195926;23;20028;-94
2022/12/02 04:19:14;;;;;;;18.85;7.90;;;4.80;94.00;;;;;;6219821;23;20099;-87
2022/12/02 04:21:41;;;;;;;17.77;7.18;;;4.80;94.00;;;;;;6194769;23;20024;-87
2022/12/02 04:24:13;;;;;;;18.88;8.70;;;4.80;94.00;;;;;;6194639;23;20020;-88
2022/12/02 04:26:43;;;;;;;18.38;8.07;;;4.80;93.90;;;;;;6194561;23;20020;-87
2022/12/02 04:29:31;;;;;;;15.57;6.97;;;4.80;94.00;;;;;;6194988;23;20020;-89
2022/12/02 04:32:13;;;;;;;20.70;8.25;;;4.80;93.90;;;;;;6222163;23;20095;-88
2022/12/02 04:34:57;;;;;;;15.75;6.45;;;4.80;94.00;;;;;;6219779;23;20016;-88
2022/12/02 04:37:30;;;;;;;15.02;6.60;;;4.80;94.00;;;;;;6219959;23;20072;-88
2022/12/02 04:40:08;;;;;;;16.98;6.47;;;4.80;94.00;;;;;;6222172;23;20514;-88
2022/12/02 04:42:55;;;;;;;17.77;7.30;;;4.70;94.00;;;;;;6219777;23;20020;-88
2022/12/02 04:46:20;;;;;;;19.77;8.05;;;4.70;94.00;;;;;;6197975;23;20016;-88
2022/12/02 04:49:03;;;;;;;;;;;;;;;;;;;;;
2022/12/02 04:51:51;;;;;;;19.10;7.97;;;4.70;94.00;;;;;;6219888;23;20112;-88
2022/12/02 04:58:05;;;;;;;15.43;6.97;;;4.70;94.00;;;;;;6244887;23;20455;-88
2022/12/02 05:00:59;;;;;;;18.63;6.97;;;4.70;94.10;;;;;;6219415;23;20099;-89
2022/12/02 05:04:09;;;;;;;19.88;8.85;;;4.60;93.90;;;;;;6226400;23;20323;-96
2022/12/02 05:07:16;;;;;;;19.05;7.72;;;4.60;94.00;;;;;;6188888;23;20020;-96
2022/12/02 05:10:14;;;;;;;15.95;6.10;;;4.60;94.00;;;;;;6204416;23;20047;-96
2022/12/02 05:13:18;;;;;;;15.48;6.30;;;4.60;94.00;;;;;;6198227;23;20021;-96
2022/12/02 05:16:15;;;;;;;;;;;;;;;;;;;;;
2022/12/02 05:19:08;;;;;;;12.75;5.30;;;4.60;93.90;;;;;;6195231;23;20016;-96
2022/12/02 05:21:35;;;;;;;13.75;6.00;;;4.60;93.90;;;;;;6193783;23;20017;-96
2022/12/02 05:24:33;;;;;;;14.07;6.50;;;4.60;93.90;;;;;;6194969;23;20048;-96
2022/12/02 05:27:29;;;;;;;15.93;7.45;;;4.60;93.90;;;;;;6175012;23;20431;-96
2022/12/02 05:38:41;;;;;;;19.85;8.18;;;4.50;93.80;;;;;;6190299;23;20020;-96
2022/12/02 05:41:27;;;;;;;19.75;8.82;;;4.50;93.80;;;;;;6176003;23;20017;-96
2022/12/02 05:44:20;;;;;;;17.77;8.38;;;4.50;93.80;;;;;;6222380;23;20044;-96
2022/12/02 05:50:58;;;;;;;19.00;7.47;;;4.50;93.80;;;;;;6193051;23;20347;-88
2022/12/02 05:54:25;;;;;;;16.15;6.85;;;4.50;93.80;;;;;;6195978;23;20025;-88
2022/12/02 05:57:02;;;;;;;16.42;6.60;;;4.50;93.80;;;;;;6190705;23;20017;-88
2022/12/02 05:59:46;;;;;;;16.88;7.05;;;4.40;93.80;;;;;;6168089;23;20052;-88
2022/12/02 06:03:03;;;;;;;15.73;6.88;;;4.50;93.90;;;;;;6145504;23;20085;-96
2022/12/02 06:06:06;;;;;;;17.23;7.65;;;4.50;93.80;;;;;;6170296;23;20025;-96
2022/12/02 07:39:19;;;;;;;16.70;8.80;;;4.00;94.00;;;;;;4979415;27;4892260;-90
2022/12/02 07:41:50;;;;;;;17.27;7.72;;;4.00;94.20;;;;;;5094325;28;20078;-85
2022/12/02 07:44:19;;;;;;;14.98;7.10;;;4.00;94.20;;;;;;5081935;28;20069;-85
2022/12/02 07:46:46;;;;;;;16.15;6.20;;;4.00;94.20;;;;;;5096313;28;20507;-86
2022/12/02 07:49:14;;;;;;;18.00;7.90;;;4.10;94.30;;;;;;5096771;28;20051;-86
2022/12/02 07:51:41;;;;;;;17.65;7.90;;;4.00;94.20;;;;;;5098788;28;20047;-86
2022/12/02 07:54:08;;;;;;;22.10;8.43;;;4.00;94.20;;;;;;5082762;28;20487;-86
2022/12/02 08:00:58;;;;;;;18.88;7.95;;;4.00;94.30;;;;;;5076340;28;20040;-86
2022/12/02 08:03:25;;;;;;;20.85;7.75;;;4.00;94.30;;;;;;5079288;28;20043;-86
2022/12/02 08:05:57;;;;;;;19.17;7.65;;;4.00;94.30;;;;;;5095898;28;20046;-84
2022/12/02 08:08:25;;;;;;;20.15;8.63;;;4.00;94.40;;;;;;5094009;28;20054;-84
2022/12/02 08:10:52;;;;;;;20.48;8.60;;;4.00;94.40;;;;;;5083419;28;20044;-84
2022/12/02 08:13:24;;;;;;;19.60;8.77;;;4.00;94.40;;;;;;5104969;28;20051;-84
2022/12/02 08:16:12;;;;;;;19.65;8.20;;;4.00;94.40;;;;;;5089292;28;20044;-91
2022/12/02 08:19:02;;;;;;;19.10;8.93;;;4.00;94.40;;;;;;5086702;28;20045;-84
2022/12/02 08:21:32;;;;;;;23.52;11.00;;;4.00;94.40;;;;;;5092992;28;20040;-86
2022/12/02 08:24:02;;;;;;;;;;;4.00;94.50;;;;;;5111757;28;20035;-86
2022/12/02 08:26:29;;;;;;;26.95;10.35;;;4.00;94.50;;;;;;5095635;28;19972;-85
2022/12/02 08:28:57;;;;;;;23.60;10.57;;;4.00;94.50;;;;;;5087557;28;20048;-84
2022/12/02 08:31:24;;;;;;;22.20;9.70;;;4.00;94.50;;;;;;5089948;28;20062;-84
2022/12/02 08:34:00;;;;;;;21.80;10.68;;;4.00;94.50;;;;;;5079216;28;20044;-86
2022/12/02 08:36:33;;;;;;;23.23;9.77;;;4.00;94.40;;;;;;5081724;28;20131;-87
2022/12/02 08:39:04;;;;;;;23.08;9.90;;;4.00;94.40;;;;;;5108094;28;20071;-86
2022/12/02 08:41:33;;;;;;;25.42;11.15;;;4.00;94.50;;;;;;5084152;28;20050;-86
2022/12/02 08:44:00;;;;;;;24.42;10.07;;;4.00;94.40;;;;;;5068849;28;20032;-87
2022/12/02 08:46:28;;;;;;;25.65;12.20;;;4.00;94.40;;;;;;5068194;28;20047;-87
2022/12/02 08:48:56;;;;;;;29.48;12.15;;;4.00;94.40;;;;;;5087688;28;20066;-87
2022/12/02 08:51:23;;;;;;;26.63;11.43;;;4.00;94.40;;;;;;5061916;28;20054;-87
2022/12/02 08:53:50;;;;;;;28.85;11.63;;;4.00;94.40;;;;;;5078366;28;20048;-87
2022/12/02 08:56:23;;;;;;;25.90;9.80;;;4.00;94.40;;;;;;5051631;28;20048;-86
2022/12/02 08:58:50;;;;;;;33.95;12.82;;;4.10;94.40;;;;;;5045632;28;20055;-87
2022/12/02 09:01:21;;;;;;;32.00;13.27;;;4.00;94.40;;;;;;5046191;28;20102;-87
2022/12/02 09:03:54;;;;;;;27.40;10.80;;;4.00;94.40;;;;;;5074859;28;20131;-83
2022/12/02 09:06:22;;;;;;;27.23;11.00;;;4.10;94.40;;;;;;5077168;28;20048;-83
2022/12/02 09:08:49;;;;;;;23.48;10.23;;;4.10;94.40;;;;;;5061043;28;20139;-86
2022/12/02 09:11:17;;;;;;;25.30;10.68;;;4.10;94.40;;;;;;5061523;28;20074;-86
2022/12/02 09:13:44;;;;;;;28.88;10.63;;;4.20;94.40;;;;;;5083830;28;20052;-85
2022/12/02 09:16:11;;;;;;;23.75;11.05;;;4.10;94.30;;;;;;5077540;28;20043;-86
2022/12/02 09:19:03;;;;;;;29.75;10.23;;;4.10;94.30;;;;;;5077998;28;20040;-88
2022/12/02 09:21:54;;;;;;;23.23;9.95;;;4.20;94.30;;;;;;5064028;28;20121;-85
2022/12/02 09:24:24;;;;;;;29.83;10.65;;;4.20;94.30;;;;;;5041222;28;20040;-86
2022/12/02 09:26:53;;;;;;;22.45;9.50;;;4.20;94.30;;;;;;5055449;28;20076;-87
2022/12/02 09:29:23;;;;;;;21.25;9.30;;;4.20;94.20;;;;;;5053826;28;20416;-83
2022/12/02 09:31:50;;;;;;;22.98;9.82;;;4.30;94.30;;;;;;5058234;28;20542;-84
2022/12/02 09:34:20;;;;;;;21.20;9.02;;;4.30;94.20;;;;;;5068288;28;20051;-85
2022/12/02 09:36:50;;;;;;;26.40;10.30;;;4.30;94.20;;;;;;5061679;28;20393;-85
2022/12/02 09:39:22;;;;;;;22.25;9.48;;;4.30;94.20;;;;;;5050031;28;20109;-85
2022/12/02 09:41:54;;;;;;;24.38;8.50;;;4.30;94.10;;;;;;5074507;28;20040;-85
2022/12/02 09:44:26;;;;;;;24.70;9.88;;;4.40;94.20;;;;;;5078123;28;20071;-87
2022/12/02 09:46:53;;;;;;;23.25;9.20;;;4.40;94.00;;;;;;5060961;28;20094;-87
2022/12/02 09:49:24;;;;;;;25.08;9.80;;;4.40;94.00;;;;;;5068316;28;20044;-87
2022/12/02 09:51:55;;;;;;;23.98;10.32;;;4.40;94.00;;;;;;5056372;28;20044;-87
2022/12/02 09:54:25;;;;;;;20.08;8.95;;;4.40;93.90;;;;;;5060739;28;20044;-86
2022/12/02 09:56:58;;;;;;;21.40;9.38;;;4.50;93.90;;;;;;5077154;28;20158;-86
2022/12/02 09:59:25;;;;;;;21.80;9.23;;;4.50;93.90;;;;;;5076967;28;20048;-86
2022/12/02 10:01:56;;;;;;;22.98;9.20;;;4.50;93.80;;;;;;5065971;28;20100;-87
2022/12/02 10:04:26;;;;;;;25.08;10.15;;;4.50;94.10;;;;;;5089632;28;20051;-87
2022/12/02 10:06:53;;;;;;;23.60;9.98;;;4.50;93.80;;;;;;5066404;28;20067;-87
2022/12/02 10:15:01;;;;;;;19.25;8.63;;;4.60;93.70;;;;;;5096299;28;20125;-92
2022/12/02 10:19:09;;;;;;;;;;;;;;;;;;;;;
2022/12/02 10:31:23;;;;;;;30.52;11.57;;;4.60;93.40;;;;;;4879164;29;20413;-92
2022/12/02 10:33:59;;;;;;;29.85;11.70;;;4.60;93.40;;;;;;4924112;28;20158;-83
2022/12/02 10:36:41;;;;;;;35.15;13.32;;;4.50;93.40;;;;;;4959546;28;20411;-84
2022/12/02 10:39:22;;;;;;;25.08;11.32;;;4.50;93.30;;;;;;4992978;28;20090;-84
2022/12/02 10:42:20;;;;;;;33.75;13.07;;;4.60;93.40;;;;;;5011517;28;20132;-84
2022/12/02 10:45:27;;;;;;;29.95;12.35;;;4.50;93.30;;;;;;4995989;28;20490;-87
2022/12/02 10:48:12;;;;;;;31.00;12.95;;;4.50;93.30;;;;;;5006830;28;20537;-87
2022/12/02 10:50:39;;;;;;;29.27;12.00;;;4.40;93.30;;;;;;5015544;28;20060;-86
2022/12/02 10:53:18;;;;;;;23.92;10.52;;;4.40;93.40;;;;;;5007360;28;20049;-91
2022/12/02 10:55:47;;;;;;;28.40;11.98;;;4.30;93.40;;;;;;5064258;28;20128;-88
2022/12/02 10:58:29;;;;;;;22.90;10.32;;;4.30;93.40;;;;;;5076206;28;20072;-86
2022/12/02 11:01:00;;;;;;;23.77;10.30;;;4.30;93.40;;;;;;5076309;28;20072;-84
2022/12/02 11:03:27;;;;;;;22.80;9.27;;;4.20;93.50;;;;;;5075339;28;20032;-83
2022/12/02 11:05:54;;;;;;;25.10;10.57;;;4.20;93.50;;;;;;5042180;28;20378;-83
2022/12/02 11:08:27;;;;;;;27.85;10.40;;;4.20;93.50;;;;;;5055719;28;20127;-83
2022/12/02 11:11:23;;;;;;;22.75;10.23;;;4.20;93.40;;;;;;5055443;28;20048;-84
2022/12/02 11:14:07;;;;;;;23.42;9.18;;;4.20;93.40;;;;;;5066149;28;20048;-84
2022/12/02 11:16:34;;;;;;;30.38;11.05;;;4.20;93.40;;;;;;5057182;28;20047;-85
2022/12/02 11:19:11;;;;;;;25.42;11.43;;;4.20;93.40;;;;;;5074947;28;20155;-84
2022/12/02 11:21:43;;;;;;;29.67;11.38;;;4.20;93.30;;;;;;5058092;28;20041;-83
2022/12/02 11:24:22;;;;;;;24.10;9.70;;;4.20;93.30;;;;;;5083597;28;20050;-83
2022/12/02 11:26:59;;;;;;;28.77;10.07;;;4.20;93.20;;;;;;5072319;28;20047;-83
2022/12/02 11:29:33;;;;;;;26.90;10.00;;;4.20;93.20;;;;;;5074934;28;20468;-84
2022/12/02 11:32:21;;;;;;;29.58;11.48;;;4.20;93.20;;;;;;5074531;28;20039;-83
2022/12/02 11:34:57;;;;;;;29.65;11.35;;;4.30;93.20;;;;;;5073700;28;20046;-84
2022/12/02 11:37:47;;;;;;;31.27;11.20;;;4.30;93.10;;;;;;5065633;28;20044;-83
2022/12/02 11:40:17;;;;;;;31.30;12.07;;;4.20;93.10;;;;;;5037685;28;20055;-83
2022/12/02 11:42:45;;;;;;;25.88;9.57;;;4.20;93.10;;;;;;5062023;28;20385;-84
2022/12/02 11:45:15;;;;;;;22.67;8.90;;;4.30;93.20;;;;;;5071592;28;20044;-83
2022/12/02 11:47:54;;;;;;;23.67;9.57;;;4.30;93.10;;;;;;5071624;28;20036;-83
2022/12/02 11:50:33;;;;;;;28.75;10.65;;;4.30;93.10;;;;;;5069229;28;20076;-84
2022/12/02 11:53:17;;;;;;;24.40;9.52;;;4.30;93.00;;;;;;5057137;28;20044;-88
2022/12/02 11:55:50;;;;;;;33.88;9.93;;;4.30;93.00;;;;;;5071934;28;20045;-88
2022/12/02 11:58:27;;;;;;;27.17;9.48;;;4.40;93.10;;;;;;5071550;28;20044;-83
2022/12/02 12:01:17;;;;;;;25.85;9.00;;;4.40;93.00;;;;;;5088016;28;20059;-85
2022/12/02 12:03:53;;;;;;;30.20;10.13;;;4.50;92.90;;;;;;5062843;28;20102;-83
2022/12/02 12:06:25;;;;;;;22.38;8.15;;;4.50;92.90;;;;;;5071248;28;20855;-83
2022/12/02 12:08:55;;;;;;;27.38;10.73;;;4.60;93.10;;;;;;5071295;28;20135;-84
2022/12/02 12:11:30;;;;;;;22.63;8.02;;;4.70;92.80;;;;;;5071469;28;20131;-84
2022/12/02 12:14:12;;;;;;;21.45;8.60;;;4.70;92.70;;;;;;5071363;28;20147;-83
2022/12/02 12:16:47;;;;;;;26.33;9.75;;;4.70;92.70;;;;;;5070876;28;20049;-82
2022/12/02 12:19:15;;;;;;;19.30;8.45;;;4.60;92.70;;;;;;5082737;28;20045;-92
2022/12/02 12:22:19;;;;;;;21.05;9.20;;;4.60;92.70;;;;;;5072335;28;20044;-89
2022/12/02 12:24:47;;;;;;;22.90;8.50;;;4.70;92.70;;;;;;5073007;28;20070;-83
2022/12/02 12:27:33;;;;;;;18.95;7.30;;;4.70;92.60;;;;;;5074716;28;20045;-84
2022/12/02 12:30:04;;;;;;;21.45;7.72;;;4.80;92.60;;;;;;5073100;28;20045;-83
2022/12/02 12:32:34;;;;;;;21.38;7.07;;;4.90;92.80;;;;;;5059332;28;20052;-85
2022/12/02 12:35:19;;;;;;;17.25;7.13;;;4.90;92.50;;;;;;5075174;28;20112;-85
2022/12/02 12:37:46;;;;;;;19.95;6.90;;;4.90;92.50;;;;;;5074953;28;20484;-85
2022/12/02 12:40:14;;;;;;;17.40;7.00;;;4.90;92.40;;;;;;5074567;28;20052;-89
2022/12/02 12:42:41;;;;;;;20.83;7.82;;;4.90;92.40;;;;;;5075557;28;20112;-86
2022/12/02 12:45:08;;;;;;;19.30;7.25;;;4.90;92.50;;;;;;5058311;28;20040;-80
2022/12/02 12:47:35;;;;;;;19.65;7.07;;;4.80;92.50;;;;;;5091087;28;20094;-82
2022/12/02 12:50:02;;;;;;;19.85;6.75;;;4.80;92.80;;;;;;5074433;28;20194;-81
2022/12/02 12:52:29;;;;;;;19.63;8.48;;;4.90;92.50;;;;;;5068824;28;20481;-86
2022/12/02 12:54:57;;;;;;;20.15;7.82;;;4.80;92.50;;;;;;5058550;28;20049;-87
2022/12/02 12:57:24;;;;;;;19.05;7.43;;;4.80;92.40;;;;;;5075219;28;20102;-92
2022/12/02 12:59:54;;;;;;;20.30;8.05;;;4.80;92.30;;;;;;5075719;28;20488;-90
2022/12/02 13:02:23;;;;;;;16.23;6.38;;;4.80;92.40;;;;;;5076172;28;20040;-89
2022/12/02 13:04:54;;;;;;;17.52;7.20;;;4.80;92.50;;;;;;5075531;28;20044;-89
2022/12/02 13:07:21;;;;;;;17.70;6.97;;;4.80;92.40;;;;;;5075320;28;20537;-89
2022/12/02 13:09:54;;;;;;;17.42;7.07;;;4.70;92.40;;;;;;5091365;28;20542;-90
2022/12/02 13:12:21;;;;;;;18.95;7.13;;;4.70;92.40;;;;;;5075124;28;20070;-88
2022/12/02 13:14:48;;;;;;;20.27;7.90;;;4.60;92.40;;;;;;5074895;28;20048;-89
2022/12/02 13:17:16;;;;;;;16.60;7.25;;;4.60;92.40;;;;;;5075517;28;20048;-91
2022/12/02 13:19:43;;;;;;;21.52;6.85;;;4.60;92.50;;;;;;5075126;28;20054;-89
2022/12/02 13:22:11;;;;;;;19.52;6.68;;;4.60;92.50;;;;;;5074925;28;20040;-90
2022/12/02 13:24:38;;;;;;;20.17;7.15;;;4.50;92.50;;;;;;5074957;28;20049;-89
2022/12/02 13:27:09;;;;;;;17.65;7.97;;;4.50;92.50;;;;;;5074814;28;20049;-88
2022/12/02 13:29:36;;;;;;;16.58;6.57;;;4.40;92.50;;;;;;5074573;28;20052;-90
2022/12/02 13:32:04;;;;;;;16.75;7.85;;;4.40;92.60;;;;;;5074424;28;20051;-90
2022/12/02 13:34:33;;;;;;;19.98;8.45;;;4.30;92.60;;;;;;5069083;28;20044;-90
2022/12/02 13:37:03;;;;;;;18.67;7.90;;;4.30;92.60;;;;;;5063718;28;20135;-87
2022/12/02 13:39:33;;;;;;;17.95;7.63;;;4.30;92.70;;;;;;5048161;28;20071;-86
2022/12/02 13:42:00;;;;;;;24.48;8.55;;;4.30;92.70;;;;;;5054249;28;20128;-87
2022/12/02 13:44:39;;;;;;;19.58;8.32;;;4.30;92.70;;;;;;5058007;28;20065;-89
2022/12/02 13:47:13;;;;;;;16.13;6.45;;;4.30;92.70;;;;;;5038435;28;20128;-86
2022/12/02 13:49:40;;;;;;;16.17;6.25;;;4.30;92.70;;;;;;5056163;28;20131;-86
2022/12/02 13:52:07;;;;;;;16.17;6.65;;;4.30;92.70;;;;;;5038676;28;20057;-86
2022/12/02 13:54:36;;;;;;;18.05;7.93;;;4.30;92.70;;;;;;5036642;28;20037;-87
2022/12/02 13:57:04;;;;;;;14.70;6.18;;;4.20;92.70;;;;;;5036300;28;20049;-86
2022/12/02 13:59:31;;;;;;;16.75;7.03;;;4.20;92.70;;;;;;5037147;28;20055;-84
2022/12/02 14:02:05;;;;;;;21.25;9.10;;;4.20;92.70;;;;;;5038877;28;20048;-87
2022/12/02 14:04:32;;;;;;;25.00;10.50;;;4.20;92.60;;;;;;5053601;28;20135;-84
2022/12/02 14:06:59;;;;;;;21.02;9.55;;;4.10;92.60;;;;;;5020440;28;20065;-83
2022/12/02 14:09:26;;;;;;;22.27;10.00;;;4.10;92.70;;;;;;5036301;28;20072;-83
2022/12/02 14:11:53;;;;;;;20.10;9.60;;;4.10;92.80;;;;;;5020757;28;20393;-84
2022/12/02 14:14:20;;;;;;;21.98;9.20;;;4.00;92.80;;;;;;5034684;28;20072;-84
2022/12/02 14:16:47;;;;;;;20.10;9.65;;;4.10;92.80;;;;;;5036488;28;20064;-83
2022/12/02 14:19:14;;;;;;;25.38;10.55;;;4.10;92.80;;;;;;5036259;28;20485;-84
2022/12/02 14:21:41;;;;;;;31.00;13.43;;;4.10;92.80;;;;;;5053032;28;20044;-84
2022/12/02 14:24:08;;;;;;;29.27;14.25;;;4.00;92.70;;;;;;5036581;28;20041;-85
2022/12/02 14:26:35;;;;;;;34.40;14.27;;;4.00;92.70;;;;;;5036263;28;20044;-84
2022/12/02 14:29:02;;;;;;;35.67;16.23;;;3.90;92.70;;;;;;5032926;28;20049;-85
2022/12/02 14:31:42;;;;;;;34.30;15.68;;;3.90;92.70;;;;;;5048471;28;20045;-86
2022/12/02 14:34:29;;;;;;;31.88;14.50;;;3.90;92.70;;;;;;5039912;28;20041;-88
2022/12/02 14:36:57;;;;;;;33.55;16.27;;;3.90;92.70;;;;;;5052985;28;20144;-89
2022/12/02 14:39:25;;;;;;;36.25;16.70;;;3.90;92.70;;;;;;5063734;28;20152;-84
2022/12/02 14:41:54;;;;;;;38.65;16.15;;;3.90;92.60;;;;;;5037156;28;20033;-85
2022/12/02 14:44:21;;;;;;;42.78;17.60;;;3.90;92.70;;;;;;5037662;28;20045;-84
2022/12/02 14:46:48;;;;;;;33.92;16.08;;;3.90;92.70;;;;;;5022244;28;20041;-85
2022/12/02 14:49:15;;;;;;;45.78;19.23;;;3.80;92.70;;;;;;5036669;28;20485;-89
2022/12/02 14:52:03;;;;;;;40.08;18.67;;;3.80;92.60;;;;;;5043000;28;20045;-87
2022/12/02 14:54:29;;;;;;;44.92;19.13;;;3.80;92.70;;;;;;5054132;28;20053;-83
2022/12/02 14:56:57;;;;;;;40.70;18.88;;;3.80;92.70;;;;;;5019363;28;20045;-82
2022/12/02 14:59:24;;;;;;;38.08;16.80;;;3.80;92.70;;;;;;5019501;28;20386;-85
2022/12/02 15:01:51;;;;;;;35.30;16.65;;;3.80;92.70;;;;;;5019525;28;20048;-81
2022/12/02 15:04:20;;;;;;;40.25;18.52;;;3.80;92.70;;;;;;5034551;28;20136;-82
2022/12/02 15:06:48;;;;;;;42.70;20.33;;;3.80;92.70;;;;;;5036314;28;20069;-86
2022/12/02 15:09:15;;;;;;;46.95;21.60;;;3.80;92.70;;;;;;5036770;28;20052;-86
2022/12/02 15:11:42;;;;;;;43.08;18.73;;;3.70;92.70;;;;;;5036678;28;20098;-85
2022/12/02 15:14:09;;;;;;;48.15;20.75;;;3.70;92.70;;;;;;5037542;28;20076;-82
2022/12/02 15:16:37;;;;;;;47.17;20.90;;;3.70;92.70;;;;;;5032916;28;20128;-83
2022/12/02 15:19:04;;;;;;;51.13;24.23;;;3.70;92.70;;;;;;5050294;28;20041;-83
2022/12/02 15:21:31;;;;;;;49.33;22.63;;;3.70;92.70;;;;;;5052093;28;20036;-85
2022/12/02 15:23:57;;;;;;;43.00;19.95;;;3.70;92.70;;;;;;5036320;28;20099;-84
2022/12/02 15:26:25;;;;;;;46.88;21.75;;;3.70;92.70;;;;;;5053415;28;20118;-83
2022/12/02 15:28:55;;;;;;;46.13;20.13;;;3.70;92.70;;;;;;5052868;28;20095;-84